Strawbridge, Pennsylvania
Current Conditions -  °F | °C
As of 2:54 AM on Friday 28 Nov 2014 (Local Time) from KIPT Reporting Station
Broken Clouds Broken Clouds  
Wind Chill: -5°   Ceiling: 5000
Heat Index:   Visibility: 10mi
Dew Point: -5°   Wind: 12mph
Humidity: 69%   Direction: 280°W
Pressure: 30.1"   Gusts: NA
Location:  41.3719°N, 76.499°W
Report Text: KIPT 280754Z AUTO 28010KT 10SM BKN050 BKN060 00/M05 A3010 RMK AO2 SLP197 T00001050
Loading
Personal Weather Stations






























Interactive Weather Map New forecast layout! Learn more

10-Day Weather Forecast

Advertisements
Track Severe Weather on mobile